sensor_id;sensor_type;location;lat;lon;timestamp;pressure;altitude;pressure_sealevel;temperature;humidity
31062;BME280;17724;53.546;9.974;2024-01-30T00:02:58;102736.47;;;7.25;91.92
31062;BME280;17724;53.546;9.974;2024-01-30T00:06:58;102727.56;;;7.53;90.87
31062;BME280;17724;53.546;9.974;2024-01-30T00:10:59;102725.31;;;7.56;90.20
31062;BME280;17724;53.546;9.974;2024-01-30T00:14:59;102717.53;;;7.75;89.00
31062;BME280;17724;53.546;9.974;2024-01-30T00:19:00;102728.78;;;7.65;89.12
31062;BME280;17724;53.546;9.974;2024-01-30T00:23:02;102715.75;;;7.67;89.12
31062;BME280;17724;53.546;9.974;2024-01-30T00:27:03;102711.50;;;7.64;89.26
31062;BME280;17724;53.546;9.974;2024-01-30T00:31:03;102707.47;;;7.46;89.77
31062;BME280;17724;53.546;9.974;2024-01-30T00:35:05;102700.78;;;7.48;89.34
31062;BME280;17724;53.546;9.974;2024-01-30T00:39:05;102705.41;;;7.48;89.42
31062;BME280;17724;53.546;9.974;2024-01-30T00:43:09;102703.50;;;7.63;88.72
31062;BME280;17724;53.546;9.974;2024-01-30T00:47:09;102703.13;;;7.51;89.14
31062;BME280;17724;53.546;9.974;2024-01-30T00:51:10;102700.91;;;7.61;87.32
31062;BME280;17724;53.546;9.974;2024-01-30T00:55:10;102697.06;;;7.56;87.71
31062;BME280;17724;53.546;9.974;2024-01-30T00:59:11;102700.00;;;7.54;86.87
31062;BME280;17724;53.546;9.974;2024-01-30T01:03:12;102692.75;;;7.47;87.70
31062;BME280;17724;53.546;9.974;2024-01-30T01:07:14;102706.50;;;7.53;87.46
31062;BME280;17724;53.546;9.974;2024-01-30T01:11:14;102709.22;;;7.68;87.12
31062;BME280;17724;53.546;9.974;2024-01-30T01:15:15;102698.34;;;7.38;86.93
31062;BME280;17724;53.546;9.974;2024-01-30T01:19:15;102710.66;;;7.49;86.71
31062;BME280;17724;53.546;9.974;2024-01-30T01:23:16;102719.63;;;7.58;86.70
31062;BME280;17724;53.546;9.974;2024-01-30T01:27:16;102712.31;;;7.29;87.07
31062;BME280;17724;53.546;9.974;2024-01-30T01:31:17;102709.56;;;7.14;87.42
31062;BME280;17724;53.546;9.974;2024-01-30T01:35:18;102710.63;;;7.79;86.49
31062;BME280;17724;53.546;9.974;2024-01-30T01:39:18;102710.41;;;7.80;85.30
31062;BME280;17724;53.546;9.974;2024-01-30T01:43:19;102706.38;;;7.98;84.74
31062;BME280;17724;53.546;9.974;2024-01-30T01:47:19;102703.97;;;7.67;85.04
31062;BME280;17724;53.546;9.974;2024-01-30T01:51:21;102701.91;;;7.90;84.24
31062;BME280;17724;53.546;9.974;2024-01-30T01:55:23;102695.53;;;7.68;84.06
31062;BME280;17724;53.546;9.974;2024-01-30T01:59:25;102690.81;;;7.98;83.99
31062;BME280;17724;53.546;9.974;2024-01-30T02:03:26;102690.16;;;7.75;84.04
31062;BME280;17724;53.546;9.974;2024-01-30T02:07:27;102683.88;;;7.81;84.03
31062;BME280;17724;53.546;9.974;2024-01-30T02:11:28;102676.59;;;7.88;83.71
31062;BME280;17724;53.546;9.974;2024-01-30T02:15:29;102673.75;;;7.81;83.95
31062;BME280;17724;53.546;9.974;2024-01-30T02:19:29;102666.69;;;7.87;83.50
31062;BME280;17724;53.546;9.974;2024-01-30T02:23:30;102655.84;;;7.79;82.82
31062;BME280;17724;53.546;9.974;2024-01-30T02:27:31;102651.78;;;7.75;83.32
31062;BME280;17724;53.546;9.974;2024-01-30T02:31:31;102656.75;;;7.50;84.92
31062;BME280;17724;53.546;9.974;2024-01-30T02:35:32;102648.75;;;7.48;85.86
31062;BME280;17724;53.546;9.974;2024-01-30T02:39:33;102643.69;;;7.67;85.04
31062;BME280;17724;53.546;9.974;2024-01-30T02:43:34;102650.88;;;7.68;84.50
31062;BME280;17724;53.546;9.974;2024-01-30T02:47:34;102643.44;;;7.83;84.00
31062;BME280;17724;53.546;9.974;2024-01-30T02:51:35;102640.22;;;7.58;84.82
31062;BME280;17724;53.546;9.974;2024-01-30T02:55:35;102637.50;;;7.79;83.69
31062;BME280;17724;53.546;9.974;2024-01-30T02:59:36;102593.97;;;7.27;84.58
31062;BME280;17724;53.546;9.974;2024-01-30T03:03:36;102647.09;;;7.69;85.03
31062;BME280;17724;53.546;9.974;2024-01-30T03:07:40;102639.31;;;7.72;84.27
31062;BME280;17724;53.546;9.974;2024-01-30T03:11:40;102636.16;;;7.54;85.07
31062;BME280;17724;53.546;9.974;2024-01-30T03:15:41;102633.66;;;7.37;87.12
31062;BME280;17724;53.546;9.974;2024-01-30T03:19:41;102635.66;;;7.65;85.68
31062;BME280;17724;53.546;9.974;2024-01-30T03:23:42;102622.72;;;7.37;86.92
31062;BME280;17724;53.546;9.974;2024-01-30T03:27:42;102625.28;;;7.60;85.73
31062;BME280;17724;53.546;9.974;2024-01-30T03:31:43;102621.72;;;7.60;85.90
31062;BME280;17724;53.546;9.974;2024-01-30T03:35:43;102616.34;;;7.30;86.86
31062;BME280;17724;53.546;9.974;2024-01-30T03:39:43;102613.78;;;7.29;87.78
31062;BME280;17724;53.546;9.974;2024-01-30T03:43:44;102626.97;;;7.40;88.21
31062;BME280;17724;53.546;9.974;2024-01-30T03:47:45;102609.13;;;7.29;87.51
31062;BME280;17724;53.546;9.974;2024-01-30T03:51:45;102603.25;;;6.96;88.80
31062;BME280;17724;53.546;9.974;2024-01-30T03:55:47;102597.31;;;7.07;90.12
31062;BME280;17724;53.546;9.974;2024-01-30T03:59:48;102599.84;;;7.09;88.74
31062;BME280;17724;53.546;9.974;2024-01-30T04:03:48;102597.72;;;6.75;91.18
31062;BME280;17724;53.546;9.974;2024-01-30T04:07:49;102594.69;;;6.70;92.32
31062;BME280;17724;53.546;9.974;2024-01-30T04:11:49;102603.72;;;7.00;91.18
31062;BME280;17724;53.546;9.974;2024-01-30T04:15:50;102599.13;;;6.85;91.32
31062;BME280;17724;53.546;9.974;2024-01-30T04:19:50;102601.19;;;6.69;92.74
31062;BME280;17724;53.546;9.974;2024-01-30T04:23:51;102607.00;;;7.10;90.88
31062;BME280;17724;53.546;9.974;2024-01-30T04:27:52;102606.28;;;7.01;91.54
31062;BME280;17724;53.546;9.974;2024-01-30T04:31:52;102606.28;;;7.01;91.26
31062;BME280;17724;53.546;9.974;2024-01-30T04:35:53;102608.00;;;6.87;91.01
31062;BME280;17724;53.546;9.974;2024-01-30T04:39:53;102609.03;;;6.86;91.97
31062;BME280;17724;53.546;9.974;2024-01-30T04:43:54;102616.38;;;6.86;92.01
31062;BME280;17724;53.546;9.974;2024-01-30T04:47:54;102604.78;;;6.39;94.07
31062;BME280;17724;53.546;9.974;2024-01-30T04:51:55;102608.94;;;6.95;93.09
31062;BME280;17724;53.546;9.974;2024-01-30T04:55:56;102610.72;;;6.73;93.73
31062;BME280;17724;53.546;9.974;2024-01-30T04:59:57;102603.84;;;6.47;95.24
31062;BME280;17724;53.546;9.974;2024-01-30T05:03:57;102602.69;;;6.41;96.32
31062;BME280;17724;53.546;9.974;2024-01-30T05:07:58;102604.22;;;6.06;97.83
31062;BME280;17724;53.546;9.974;2024-01-30T05:11:58;102597.75;;;6.22;99.52
31062;BME280;17724;53.546;9.974;2024-01-30T05:15:59;102595.91;;;6.37;99.84
31062;BME280;17724;53.546;9.974;2024-01-30T05:20:02;102594.31;;;6.58;98.12
31062;BME280;17724;53.546;9.974;2024-01-30T05:24:03;102595.72;;;6.39;99.79
31062;BME280;17724;53.546;9.974;2024-01-30T05:28:03;102609.59;;;6.52;99.10
31062;BME280;17724;53.546;9.974;2024-01-30T05:32:04;102604.09;;;6.37;99.57
31062;BME280;17724;53.546;9.974;2024-01-30T05:36:06;102593.72;;;6.33;100.00
31062;BME280;17724;53.546;9.974;2024-01-30T05:40:07;102591.50;;;5.99;100.00
31062;BME280;17724;53.546;9.974;2024-01-30T05:44:08;102596.75;;;6.23;100.00
31062;BME280;17724;53.546;9.974;2024-01-30T05:48:09;102593.88;;;6.16;100.00
31062;BME280;17724;53.546;9.974;2024-01-30T05:52:10;102579.34;;;6.01;100.00
31062;BME280;17724;53.546;9.974;2024-01-30T05:56:11;102582.97;;;6.16;100.00
31062;BME280;17724;53.546;9.974;2024-01-30T06:00:11;102588.44;;;6.16;100.00
31062;BME280;17724;53.546;9.974;2024-01-30T06:04:12;102584.38;;;6.12;100.00
31062;BME280;17724;53.546;9.974;2024-01-30T06:08:13;102583.03;;;6.08;100.00
31062;BME280;17724;53.546;9.974;2024-01-30T06:12:13;102572.22;;;6.15;100.00
31062;BME280;17724;53.546;9.974;2024-01-30T06:16:14;102582.28;;;6.00;100.00
31062;BME280;17724;53.546;9.974;2024-01-30T06:20:14;102555.44;;;6.03;100.00
31062;BME280;17724;53.546;9.974;2024-01-30T06:24:15;102580.22;;;6.16;100.00
31062;BME280;17724;53.546;9.974;2024-01-30T06:28:15;102559.50;;;6.07;100.00
31062;BME280;17724;53.546;9.974;2024-01-30T06:32:16;102559.75;;;5.98;100.00
31062;BME280;17724;53.546;9.974;2024-01-30T06:36:16;102535.16;;;5.98;100.00
31062;BME280;17724;53.546;9.974;2024-01-30T06:40:17;102547.44;;;6.16;100.00
31062;BME280;17724;53.546;9.974;2024-01-30T06:44:17;102547.47;;;6.31;100.00
31062;BME280;17724;53.546;9.974;2024-01-30T06:48:18;102552.06;;;6.16;100.00
31062;BME280;17724;53.546;9.974;2024-01-30T06:52:19;102548.41;;;6.24;100.00
31062;BME280;17724;53.546;9.974;2024-01-30T06:56:19;102560.06;;;6.17;100.00
31062;BME280;17724;53.546;9.974;2024-01-30T07:00:21;102550.47;;;6.36;100.00
31062;BME280;17724;53.546;9.974;2024-01-30T07:04:21;102551.88;;;6.17;100.00
31062;BME280;17724;53.546;9.974;2024-01-30T07:08:22;102551.78;;;6.26;100.00
31062;BME280;17724;53.546;9.974;2024-01-30T07:12:23;102540.19;;;6.24;100.00
31062;BME280;17724;53.546;9.974;2024-01-30T07:16:25;102542.66;;;6.19;100.00
31062;BME280;17724;53.546;9.974;2024-01-30T07:35:52;102548.97;;;6.49;100.00
31062;BME280;17724;53.546;9.974;2024-01-30T07:39:53;102541.81;;;6.48;100.00
31062;BME280;17724;53.546;9.974;2024-01-30T07:43:53;102547.66;;;6.45;100.00
31062;BME280;17724;53.546;9.974;2024-01-30T07:47:54;102548.66;;;6.73;100.00
31062;BME280;17724;53.546;9.974;2024-01-30T07:51:54;102542.22;;;7.10;100.00
31062;BME280;17724;53.546;9.974;2024-01-30T07:55:55;102538.59;;;7.10;100.00
31062;BME280;17724;53.546;9.974;2024-01-30T07:59:55;102542.63;;;6.78;100.00
31062;BME280;17724;53.546;9.974;2024-01-30T08:03:57;102527.63;;;6.74;100.00
31062;BME280;17724;53.546;9.974;2024-01-30T08:07:57;102507.78;;;6.50;100.00
31062;BME280;17724;53.546;9.974;2024-01-30T08:11:58;102544.72;;;6.61;100.00
31062;BME280;17724;53.546;9.974;2024-01-30T08:15:58;102543.03;;;6.75;100.00
31062;BME280;17724;53.546;9.974;2024-01-30T08:19:59;102542.84;;;6.61;100.00
31062;BME280;17724;53.546;9.974;2024-01-30T08:23:59;102539.63;;;6.73;100.00
31062;BME280;17724;53.546;9.974;2024-01-30T08:28:00;102542.16;;;6.74;100.00
31062;BME280;17724;53.546;9.974;2024-01-30T08:32:01;102521.53;;;6.57;100.00
31062;BME280;17724;53.546;9.974;2024-01-30T08:36:01;102532.25;;;6.73;100.00
31062;BME280;17724;53.546;9.974;2024-01-30T08:40:03;102524.63;;;6.83;100.00
31062;BME280;17724;53.546;9.974;2024-01-30T08:44:04;102530.81;;;6.92;100.00
31062;BME280;17724;53.546;9.974;2024-01-30T08:48:05;102519.91;;;6.77;100.00
31062;BME280;17724;53.546;9.974;2024-01-30T08:52:06;102509.78;;;6.93;100.00
31062;BME280;17724;53.546;9.974;2024-01-30T08:56:07;102477.91;;;6.63;100.00
31062;BME280;17724;53.546;9.974;2024-01-30T09:00:08;102497.16;;;6.91;100.00
31062;BME280;17724;53.546;9.974;2024-01-30T09:04:10;102492.53;;;6.92;100.00
31062;BME280;17724;53.546;9.974;2024-01-30T09:08:10;102490.19;;;6.74;100.00
31062;BME280;17724;53.546;9.974;2024-01-30T09:12:11;102499.44;;;6.88;100.00
31062;BME280;17724;53.546;9.974;2024-01-30T09:16:12;102509.13;;;7.27;100.00
31062;BME280;17724;53.546;9.974;2024-01-30T09:20:12;102516.16;;;7.57;100.00
31062;BME280;17724;53.546;9.974;2024-01-30T09:24:13;102511.13;;;7.61;100.00
31062;BME280;17724;53.546;9.974;2024-01-30T09:28:13;102525.22;;;7.79;100.00
31062;BME280;17724;53.546;9.974;2024-01-30T09:32:14;102525.53;;;7.98;100.00
31062;BME280;17724;53.546;9.974;2024-01-30T09:36:14;102539.69;;;8.01;99.30
31062;BME280;17724;53.546;9.974;2024-01-30T09:40:20;102533.44;;;8.07;98.07
31062;BME280;17724;53.546;9.974;2024-01-30T09:44:22;102539.81;;;8.14;98.31
31062;BME280;17724;53.546;9.974;2024-01-30T09:48:23;102535.94;;;7.81;98.89
31062;BME280;17724;53.546;9.974;2024-01-30T09:52:25;102530.78;;;7.93;99.19
31062;BME280;17724;53.546;9.974;2024-01-30T09:56:25;102526.00;;;8.01;98.79
31062;BME280;17724;53.546;9.974;2024-01-30T10:00:26;102510.66;;;7.79;99.71
31062;BME280;17724;53.546;9.974;2024-01-30T10:04:27;102484.47;;;7.48;100.00
31062;BME280;17724;53.546;9.974;2024-01-30T10:08:29;102499.25;;;7.75;100.00
31062;BME280;17724;53.546;9.974;2024-01-30T10:12:30;102481.59;;;7.56;100.00
31062;BME280;17724;53.546;9.974;2024-01-30T10:16:30;102489.78;;;7.78;100.00
31062;BME280;17724;53.546;9.974;2024-01-30T10:20:31;102497.97;;;7.99;100.00
31062;BME280;17724;53.546;9.974;2024-01-30T10:24:33;102500.00;;;8.19;99.08
31062;BME280;17724;53.546;9.974;2024-01-30T10:28:34;102506.31;;;8.47;98.96
31062;BME280;17724;53.546;9.974;2024-01-30T10:32:34;102491.25;;;8.71;97.00
31062;BME280;17724;53.546;9.974;2024-01-30T10:36:39;102497.53;;;8.65;96.94
31062;BME280;17724;53.546;9.974;2024-01-30T10:40:43;102483.88;;;8.78;96.54
31062;BME280;17724;53.546;9.974;2024-01-30T10:49:02;102477.22;;;9.07;95.69
31062;BME280;17724;53.546;9.974;2024-01-30T10:53:03;102475.97;;;9.10;95.43
31062;BME280;17724;53.546;9.974;2024-01-30T10:57:05;102472.78;;;9.13;94.43
31062;BME280;17724;53.546;9.974;2024-01-30T11:01:07;102459.19;;;8.85;95.37
31062;BME280;17724;53.546;9.974;2024-01-30T11:05:08;102470.63;;;8.95;96.99
31062;BME280;17724;53.546;9.974;2024-01-30T11:09:11;102467.50;;;8.98;96.98
31062;BME280;17724;53.546;9.974;2024-01-30T11:13:18;102463.72;;;9.19;95.90
31062;BME280;17724;53.546;9.974;2024-01-30T11:17:19;102458.22;;;9.06;96.21
31062;BME280;17724;53.546;9.974;2024-01-30T11:21:19;102454.44;;;9.20;96.27
31062;BME280;17724;53.546;9.974;2024-01-30T11:25:21;102469.00;;;9.14;96.47
31062;BME280;17724;53.546;9.974;2024-01-30T11:29:27;102472.00;;;9.26;95.85
31062;BME280;17724;53.546;9.974;2024-01-30T11:33:29;102473.03;;;9.31;96.12
31062;BME280;17724;53.546;9.974;2024-01-30T11:37:36;102466.94;;;9.56;95.27
31062;BME280;17724;53.546;9.974;2024-01-30T11:41:39;102460.56;;;9.88;94.59
31062;BME280;17724;53.546;9.974;2024-01-30T11:45:41;102459.91;;;10.06;93.61
31062;BME280;17724;53.546;9.974;2024-01-30T11:49:43;102453.78;;;10.18;92.81
31062;BME280;17724;53.546;9.974;2024-01-30T11:53:43;102457.28;;;10.45;92.61
31062;BME280;17724;53.546;9.974;2024-01-30T11:57:44;102444.91;;;10.74;91.34
31062;BME280;17724;53.546;9.974;2024-01-30T12:01:45;102426.25;;;10.76;91.20
31062;BME280;17724;53.546;9.974;2024-01-30T12:05:45;102442.13;;;11.12;91.13
31062;BME280;17724;53.546;9.974;2024-01-30T12:09:53;102453.44;;;11.29;90.15
31062;BME280;17724;53.546;9.974;2024-01-30T12:13:54;102446.34;;;11.46;88.36
31062;BME280;17724;53.546;9.974;2024-01-30T12:18:04;102427.91;;;11.47;88.66
31062;BME280;17724;53.546;9.974;2024-01-30T12:22:05;102432.88;;;11.56;87.01
31062;BME280;17724;53.546;9.974;2024-01-30T12:26:05;102441.06;;;11.70;86.75
31062;BME280;17724;53.546;9.974;2024-01-30T12:30:08;102429.13;;;11.76;85.90
31062;BME280;17724;53.546;9.974;2024-01-30T12:34:09;102433.59;;;11.77;86.10
31062;BME280;17724;53.546;9.974;2024-01-30T12:38:09;102439.25;;;11.82;85.28
31062;BME280;17724;53.546;9.974;2024-01-30T12:42:10;102435.88;;;11.80;86.20
31062;BME280;17724;53.546;9.974;2024-01-30T12:46:10;102438.84;;;11.85;85.73
31062;BME280;17724;53.546;9.974;2024-01-30T12:50:11;102440.97;;;11.83;85.51
31062;BME280;17724;53.546;9.974;2024-01-30T12:54:12;102429.31;;;11.81;85.23
31062;BME280;17724;53.546;9.974;2024-01-30T12:58:13;102433.19;;;11.73;85.49
31062;BME280;17724;53.546;9.974;2024-01-30T13:02:14;102421.66;;;11.83;85.37
31062;BME280;17724;53.546;9.974;2024-01-30T13:06:15;102426.59;;;11.99;85.61
31062;BME280;17724;53.546;9.974;2024-01-30T13:10:15;102437.31;;;11.89;85.57
31062;BME280;17724;53.546;9.974;2024-01-30T13:14:16;102440.22;;;11.94;85.94
31062;BME280;17724;53.546;9.974;2024-01-30T13:18:16;102431.19;;;12.05;85.62
31062;BME280;17724;53.546;9.974;2024-01-30T13:22:17;102436.47;;;12.07;86.20
31062;BME280;17724;53.546;9.974;2024-01-30T13:26:17;102435.94;;;11.98;85.59
31062;BME280;17724;53.546;9.974;2024-01-30T13:30:18;102422.91;;;11.87;85.71
31062;BME280;17724;53.546;9.974;2024-01-30T13:34:18;102424.06;;;11.98;86.98
31062;BME280;17724;53.546;9.974;2024-01-30T13:38:19;102422.59;;;11.95;87.32
31062;BME280;17724;53.546;9.974;2024-01-30T13:42:19;102430.97;;;12.07;87.21
31062;BME280;17724;53.546;9.974;2024-01-30T13:46:20;102423.44;;;11.96;87.17
31062;BME280;17724;53.546;9.974;2024-01-30T13:50:20;102421.47;;;12.03;87.63
31062;BME280;17724;53.546;9.974;2024-01-30T13:54:21;102420.31;;;12.11;87.61
31062;BME280;17724;53.546;9.974;2024-01-30T13:58:21;102420.84;;;12.19;88.01
31062;BME280;17724;53.546;9.974;2024-01-30T14:02:22;102413.50;;;12.13;87.50
31062;BME280;17724;53.546;9.974;2024-01-30T14:06:22;102419.31;;;12.23;87.22
31062;BME280;17724;53.546;9.974;2024-01-30T14:10:23;102414.56;;;12.12;87.58
31062;BME280;17724;53.546;9.974;2024-01-30T14:14:24;102395.63;;;12.16;87.75
31062;BME280;17724;53.546;9.974;2024-01-30T14:18:24;102393.06;;;12.21;87.86
31062;BME280;17724;53.546;9.974;2024-01-30T14:22:25;102387.81;;;12.13;88.01
31062;BME280;17724;53.546;9.974;2024-01-30T14:26:26;102402.69;;;12.12;88.32
31062;BME280;17724;53.546;9.974;2024-01-30T14:30:26;102396.78;;;12.08;89.11
31062;BME280;17724;53.546;9.974;2024-01-30T14:34:27;102377.66;;;12.13;89.81
31062;BME280;17724;53.546;9.974;2024-01-30T14:38:27;102380.75;;;12.17;89.84
31062;BME280;17724;53.546;9.974;2024-01-30T14:42:28;102384.16;;;12.19;89.96
31062;BME280;17724;53.546;9.974;2024-01-30T14:46:31;102376.25;;;12.22;90.56
31062;BME280;17724;53.546;9.974;2024-01-30T14:50:32;102383.59;;;12.28;90.70
31062;BME280;17724;53.546;9.974;2024-01-30T14:54:32;102385.53;;;12.28;91.17
31062;BME280;17724;53.546;9.974;2024-01-30T14:58:33;102389.44;;;12.39;91.63
31062;BME280;17724;53.546;9.974;2024-01-30T15:02:34;102394.69;;;12.40;91.98
31062;BME280;17724;53.546;9.974;2024-01-30T15:06:34;102393.09;;;12.51;93.66
31062;BME280;17724;53.546;9.974;2024-01-30T15:10:35;102381.59;;;12.54;94.05
31062;BME280;17724;53.546;9.974;2024-01-30T15:14:35;102387.94;;;12.54;92.52
31062;BME280;17724;53.546;9.974;2024-01-30T15:18:36;102382.13;;;12.44;90.21
31062;BME280;17724;53.546;9.974;2024-01-30T15:22:36;102386.66;;;12.39;91.10
31062;BME280;17724;53.546;9.974;2024-01-30T15:26:37;102375.88;;;12.37;90.29
31062;BME280;17724;53.546;9.974;2024-01-30T15:30:37;102401.06;;;12.41;90.89
31062;BME280;17724;53.546;9.974;2024-01-30T15:34:38;102392.13;;;12.27;91.06
31062;BME280;17724;53.546;9.974;2024-01-30T15:38:38;102391.03;;;12.28;92.07
31062;BME280;17724;53.546;9.974;2024-01-30T15:42:39;102398.72;;;12.26;91.50
31062;BME280;17724;53.546;9.974;2024-01-30T15:46:39;102396.03;;;12.38;92.16
31062;BME280;17724;53.546;9.974;2024-01-30T15:50:40;102409.88;;;12.31;92.73
31062;BME280;17724;53.546;9.974;2024-01-30T15:54:40;102392.78;;;12.41;93.57
31062;BME280;17724;53.546;9.974;2024-01-30T15:58:41;102403.38;;;12.44;93.10
31062;BME280;17724;53.546;9.974;2024-01-30T16:02:42;102396.72;;;12.33;93.58
31062;BME280;17724;53.546;9.974;2024-01-30T16:06:42;102398.41;;;12.34;93.95
31062;BME280;17724;53.546;9.974;2024-01-30T16:10:43;102403.47;;;12.37;92.67
31062;BME280;17724;53.546;9.974;2024-01-30T16:14:43;102387.75;;;12.19;92.56
31062;BME280;17724;53.546;9.974;2024-01-30T16:18:44;102419.63;;;12.15;93.70
31062;BME280;17724;53.546;9.974;2024-01-30T16:22:44;102414.56;;;12.30;94.20
31062;BME280;17724;53.546;9.974;2024-01-30T16:26:45;102416.69;;;12.28;93.83
31062;BME280;17724;53.546;9.974;2024-01-30T16:30:45;102428.13;;;12.32;93.41
31062;BME280;17724;53.546;9.974;2024-01-30T16:34:45;102424.22;;;12.40;94.01
31062;BME280;17724;53.546;9.974;2024-01-30T16:38:46;102433.63;;;12.32;94.16
31062;BME280;17724;53.546;9.974;2024-01-30T16:42:46;102421.38;;;12.46;94.70
31062;BME280;17724;53.546;9.974;2024-01-30T16:46:47;102418.88;;;12.45;93.40
31062;BME280;17724;53.546;9.974;2024-01-30T16:50:48;102418.63;;;12.46;92.71
31062;BME280;17724;53.546;9.974;2024-01-30T16:54:48;102420.16;;;12.42;93.16
31062;BME280;17724;53.546;9.974;2024-01-30T16:58:49;102402.91;;;12.28;93.74
31062;BME280;17724;53.546;9.974;2024-01-30T17:02:49;102430.59;;;12.22;93.86
31062;BME280;17724;53.546;9.974;2024-01-30T17:06:50;102434.03;;;12.36;93.82
31062;BME280;17724;53.546;9.974;2024-01-30T17:10:52;102433.34;;;12.40;93.16
31062;BME280;17724;53.546;9.974;2024-01-30T17:14:53;102433.13;;;12.42;92.69
31062;BME280;17724;53.546;9.974;2024-01-30T17:18:54;102442.63;;;12.46;92.13
31062;BME280;17724;53.546;9.974;2024-01-30T17:22:54;102434.16;;;12.41;92.58
31062;BME280;17724;53.546;9.974;2024-01-30T17:26:54;102450.59;;;12.54;91.45
31062;BME280;17724;53.546;9.974;2024-01-30T17:30:55;102451.66;;;12.53;92.55
31062;BME280;17724;53.546;9.974;2024-01-30T17:34:56;102455.78;;;12.44;91.96
31062;BME280;17724;53.546;9.974;2024-01-30T17:38:57;102461.69;;;12.47;91.77
31062;BME280;17724;53.546;9.974;2024-01-30T17:42:59;102448.84;;;12.41;91.69
31062;BME280;17724;53.546;9.974;2024-01-30T17:47:00;102466.00;;;12.25;91.01
31062;BME280;17724;53.546;9.974;2024-01-30T17:51:02;102465.63;;;12.21;91.71
31062;BME280;17724;53.546;9.974;2024-01-30T17:55:03;102463.31;;;12.18;91.19
31062;BME280;17724;53.546;9.974;2024-01-30T17:59:04;102474.00;;;12.08;91.53
31062;BME280;17724;53.546;9.974;2024-01-30T18:03:05;102464.91;;;11.82;93.04
31062;BME280;17724;53.546;9.974;2024-01-30T18:07:05;102478.72;;;11.76;93.06
31062;BME280;17724;53.546;9.974;2024-01-30T18:11:06;102471.72;;;11.55;94.53
31062;BME280;17724;53.546;9.974;2024-01-30T18:15:06;102485.16;;;11.70;93.31
31062;BME280;17724;53.546;9.974;2024-01-30T18:19:07;102485.47;;;11.87;92.52
31062;BME280;17724;53.546;9.974;2024-01-30T18:23:08;102489.06;;;11.87;91.25
31062;BME280;17724;53.546;9.974;2024-01-30T18:27:08;102495.84;;;11.84;90.83
31062;BME280;17724;53.546;9.974;2024-01-30T18:31:10;102490.00;;;11.74;90.54
31062;BME280;17724;53.546;9.974;2024-01-30T18:35:11;102467.94;;;11.99;91.11
31062;BME280;17724;53.546;9.974;2024-01-30T18:39:11;102481.84;;;11.61;88.76
31062;BME280;17724;53.546;9.974;2024-01-30T18:43:12;102496.94;;;11.52;89.95
31062;BME280;17724;53.546;9.974;2024-01-30T18:47:12;102496.53;;;11.48;88.93
31062;BME280;17724;53.546;9.974;2024-01-30T18:51:16;102463.22;;;11.25;89.96
31062;BME280;17724;53.546;9.974;2024-01-30T18:55:17;102492.94;;;11.48;89.07
31062;BME280;17724;53.546;9.974;2024-01-30T18:59:17;102500.84;;;11.69;88.24
31062;BME280;17724;53.546;9.974;2024-01-30T19:03:18;102492.19;;;11.66;88.05
31062;BME280;17724;53.546;9.974;2024-01-30T19:07:18;102501.38;;;11.53;87.89
31062;BME280;17724;53.546;9.974;2024-01-30T19:11:19;102506.25;;;11.57;86.82
31062;BME280;17724;53.546;9.974;2024-01-30T19:15:20;102493.03;;;11.41;86.89
31062;BME280;17724;53.546;9.974;2024-01-30T19:19:21;102501.47;;;11.40;85.84
31062;BME280;17724;53.546;9.974;2024-01-30T19:23:21;102503.41;;;11.39;85.81
31062;BME280;17724;53.546;9.974;2024-01-30T19:27:22;102512.22;;;11.16;85.91
31062;BME280;17724;53.546;9.974;2024-01-30T19:31:23;102504.78;;;11.23;85.74
31062;BME280;17724;53.546;9.974;2024-01-30T19:35:23;102515.25;;;11.40;85.69
31062;BME280;17724;53.546;9.974;2024-01-30T19:39:24;102489.72;;;11.26;84.51
31062;BME280;17724;53.546;9.974;2024-01-30T19:43:27;102505.75;;;11.35;85.67
31062;BME280;17724;53.546;9.974;2024-01-30T19:47:28;102513.81;;;11.37;86.80
31062;BME280;17724;53.546;9.974;2024-01-30T19:51:28;102520.41;;;10.91;89.41
31062;BME280;17724;53.546;9.974;2024-01-30T19:55:29;102522.75;;;10.81;91.65
31062;BME280;17724;53.546;9.974;2024-01-30T19:59:31;102510.13;;;10.67;92.30
31062;BME280;17724;53.546;9.974;2024-01-30T20:03:34;102527.06;;;10.64;92.33
31062;BME280;17724;53.546;9.974;2024-01-30T20:07:35;102542.19;;;10.99;92.07
31062;BME280;17724;53.546;9.974;2024-01-30T20:11:36;102547.69;;;10.93;92.38
31062;BME280;17724;53.546;9.974;2024-01-30T20:15:36;102532.53;;;10.77;95.12
31062;BME280;17724;53.546;9.974;2024-01-30T20:19:37;102544.47;;;10.57;96.57
31062;BME280;17724;53.546;9.974;2024-01-30T20:23:37;102551.03;;;10.50;98.67
31062;BME280;17724;53.546;9.974;2024-01-30T20:27:38;102535.00;;;10.33;98.91
31062;BME280;17724;53.546;9.974;2024-01-30T20:31:39;102541.72;;;10.24;100.00
31062;BME280;17724;53.546;9.974;2024-01-30T20:35:40;102537.06;;;10.58;99.38
31062;BME280;17724;53.546;9.974;2024-01-30T20:39:40;102557.59;;;10.29;100.00
31062;BME280;17724;53.546;9.974;2024-01-30T20:43:41;102549.78;;;10.06;100.00
31062;BME280;17724;53.546;9.974;2024-01-30T20:47:41;102553.16;;;10.15;100.00
31062;BME280;17724;53.546;9.974;2024-01-30T20:51:42;102554.84;;;10.22;100.00
31062;BME280;17724;53.546;9.974;2024-01-30T20:55:42;102537.53;;;10.02;100.00
31062;BME280;17724;53.546;9.974;2024-01-30T20:59:43;102561.81;;;10.05;100.00
31062;BME280;17724;53.546;9.974;2024-01-30T21:03:44;102569.03;;;10.06;100.00
31062;BME280;17724;53.546;9.974;2024-01-30T21:07:46;102576.66;;;10.10;100.00
31062;BME280;17724;53.546;9.974;2024-01-30T21:11:47;102568.63;;;10.02;100.00
31062;BME280;17724;53.546;9.974;2024-01-30T21:15:47;102575.16;;;9.75;100.00
31062;BME280;17724;53.546;9.974;2024-01-30T21:19:48;102592.69;;;9.74;100.00
31062;BME280;17724;53.546;9.974;2024-01-30T21:23:49;102599.91;;;10.15;100.00